sensor_id;sensor_type;location;lat;lon;timestamp;P1;durP1;ratioP1;P2;durP2;ratioP2
21330;SDS011;10824;51.632;4.950;2023-11-22T00:02:25;8.18;;;3.78;;
21330;SDS011;10824;51.632;4.950;2023-11-22T00:04:55;7.65;;;3.40;;
21330;SDS011;10824;51.632;4.950;2023-11-22T00:07:22;15.60;;;5.75;;
21330;SDS011;10824;51.632;4.950;2023-11-22T00:09:49;5.22;;;3.20;;
21330;SDS011;10824;51.632;4.950;2023-11-22T00:12:16;6.95;;;3.95;;
21330;SDS011;10824;51.632;4.950;2023-11-22T00:14:44;7.07;;;4.38;;
21330;SDS011;10824;51.632;4.950;2023-11-22T00:17:11;6.22;;;4.32;;
21330;SDS011;10824;51.632;4.950;2023-11-22T00:19:38;6.65;;;3.22;;
21330;SDS011;10824;51.632;4.950;2023-11-22T00:22:06;6.45;;;3.08;;
21330;SDS011;10824;51.632;4.950;2023-11-22T00:24:40;7.90;;;3.80;;
21330;SDS011;10824;51.632;4.950;2023-11-22T00:27:08;4.60;;;2.95;;
21330;SDS011;10824;51.632;4.950;2023-11-22T00:29:37;8.82;;;4.10;;
21330;SDS011;10824;51.632;4.950;2023-11-22T00:32:04;6.55;;;3.33;;
21330;SDS011;10824;51.632;4.950;2023-11-22T00:34:31;9.65;;;3.67;;
21330;SDS011;10824;51.632;4.950;2023-11-22T00:36:58;7.70;;;3.17;;
21330;SDS011;10824;51.632;4.950;2023-11-22T00:39:25;7.47;;;3.67;;
21330;SDS011;10824;51.632;4.950;2023-11-22T00:41:52;9.35;;;3.67;;
21330;SDS011;10824;51.632;4.950;2023-11-22T00:44:19;7.28;;;3.00;;
21330;SDS011;10824;51.632;4.950;2023-11-22T00:46:48;7.03;;;3.78;;
21330;SDS011;10824;51.632;4.950;2023-11-22T00:49:15;7.20;;;3.13;;
21330;SDS011;10824;51.632;4.950;2023-11-22T00:51:42;8.77;;;3.53;;
21330;SDS011;10824;51.632;4.950;2023-11-22T00:54:09;7.65;;;4.45;;
21330;SDS011;10824;51.632;4.950;2023-11-22T00:56:36;5.45;;;3.22;;
21330;SDS011;10824;51.632;4.950;2023-11-22T00:59:03;7.22;;;4.18;;
21330;SDS011;10824;51.632;4.950;2023-11-22T01:01:30;9.38;;;4.22;;
21330;SDS011;10824;51.632;4.950;2023-11-22T01:03:58;7.20;;;4.40;;
21330;SDS011;10824;51.632;4.950;2023-11-22T01:06:25;6.55;;;4.05;;
21330;SDS011;10824;51.632;4.950;2023-11-22T01:08:53;6.75;;;2.90;;
21330;SDS011;10824;51.632;4.950;2023-11-22T01:11:20;9.75;;;4.72;;
21330;SDS011;10824;51.632;4.950;2023-11-22T01:13:47;9.27;;;5.22;;
21330;SDS011;10824;51.632;4.950;2023-11-22T01:16:14;7.72;;;4.85;;
21330;SDS011;10824;51.632;4.950;2023-11-22T01:18:42;6.05;;;3.88;;
21330;SDS011;10824;51.632;4.950;2023-11-22T01:21:14;7.85;;;4.28;;
21330;SDS011;10824;51.632;4.950;2023-11-22T01:23:41;5.68;;;3.65;;
21330;SDS011;10824;51.632;4.950;2023-11-22T01:26:08;6.95;;;4.00;;
21330;SDS011;10824;51.632;4.950;2023-11-22T01:28:36;6.07;;;4.07;;
21330;SDS011;10824;51.632;4.950;2023-11-22T01:31:03;9.43;;;4.45;;
21330;SDS011;10824;51.632;4.950;2023-11-22T01:33:30;6.80;;;4.07;;
21330;SDS011;10824;51.632;4.950;2023-11-22T01:35:58;5.70;;;3.25;;
21330;SDS011;10824;51.632;4.950;2023-11-22T01:38:26;7.90;;;3.80;;
21330;SDS011;10824;51.632;4.950;2023-11-22T01:40:53;7.65;;;3.92;;
21330;SDS011;10824;51.632;4.950;2023-11-22T01:43:21;7.47;;;3.72;;
21330;SDS011;10824;51.632;4.950;2023-11-22T01:45:50;8.98;;;4.85;;
21330;SDS011;10824;51.632;4.950;2023-11-22T01:48:18;6.68;;;3.28;;
21330;SDS011;10824;51.632;4.950;2023-11-22T01:50:46;7.40;;;4.03;;
21330;SDS011;10824;51.632;4.950;2023-11-22T01:53:19;5.20;;;3.38;;
21330;SDS011;10824;51.632;4.950;2023-11-22T01:55:48;11.68;;;3.63;;
21330;SDS011;10824;51.632;4.950;2023-11-22T01:58:16;7.20;;;4.55;;
21330;SDS011;10824;51.632;4.950;2023-11-22T02:00:44;7.30;;;3.08;;
21330;SDS011;10824;51.632;4.950;2023-11-22T02:03:17;8.20;;;4.05;;
21330;SDS011;10824;51.632;4.950;2023-11-22T02:05:45;5.93;;;3.28;;
21330;SDS011;10824;51.632;4.950;2023-11-22T02:08:13;7.60;;;4.00;;
21330;SDS011;10824;51.632;4.950;2023-11-22T02:10:40;7.25;;;4.90;;
21330;SDS011;10824;51.632;4.950;2023-11-22T02:13:08;6.53;;;3.65;;
21330;SDS011;10824;51.632;4.950;2023-11-22T02:15:38;7.85;;;4.28;;
21330;SDS011;10824;51.632;4.950;2023-11-22T02:18:06;5.43;;;3.00;;
21330;SDS011;10824;51.632;4.950;2023-11-22T02:20:39;7.40;;;3.53;;
21330;SDS011;10824;51.632;4.950;2023-11-22T02:23:08;8.43;;;3.40;;
21330;SDS011;10824;51.632;4.950;2023-11-22T02:25:37;9.25;;;4.50;;
21330;SDS011;10824;51.632;4.950;2023-11-22T02:28:04;8.00;;;3.85;;
21330;SDS011;10824;51.632;4.950;2023-11-22T02:30:31;8.10;;;3.28;;
21330;SDS011;10824;51.632;4.950;2023-11-22T02:32:58;5.78;;;3.33;;
21330;SDS011;10824;51.632;4.950;2023-11-22T02:35:25;8.00;;;3.30;;
21330;SDS011;10824;51.632;4.950;2023-11-22T02:37:53;9.45;;;5.70;;
21330;SDS011;10824;51.632;4.950;2023-11-22T02:40:21;6.50;;;4.10;;
21330;SDS011;10824;51.632;4.950;2023-11-22T02:42:52;5.60;;;4.03;;
21330;SDS011;10824;51.632;4.950;2023-11-22T02:45:26;9.38;;;3.00;;
21330;SDS011;10824;51.632;4.950;2023-11-22T02:47:54;5.80;;;3.42;;
21330;SDS011;10824;51.632;4.950;2023-11-22T02:50:22;8.45;;;6.25;;
21330;SDS011;10824;51.632;4.950;2023-11-22T02:52:49;3.95;;;3.50;;
21330;SDS011;10824;51.632;4.950;2023-11-22T02:55:16;6.90;;;3.92;;
21330;SDS011;10824;51.632;4.950;2023-11-22T02:57:44;5.35;;;3.42;;
21330;SDS011;10824;51.632;4.950;2023-11-22T03:00:13;5.85;;;3.28;;
21330;SDS011;10824;51.632;4.950;2023-11-22T03:02:41;7.60;;;3.83;;
21330;SDS011;10824;51.632;4.950;2023-11-22T03:05:08;5.78;;;4.18;;
21330;SDS011;10824;51.632;4.950;2023-11-22T03:07:36;5.93;;;3.58;;
21330;SDS011;10824;51.632;4.950;2023-11-22T03:10:04;5.20;;;3.17;;
21330;SDS011;10824;51.632;4.950;2023-11-22T03:12:34;7.68;;;3.70;;
21330;SDS011;10824;51.632;4.950;2023-11-22T03:15:01;8.30;;;4.43;;
21330;SDS011;10824;51.632;4.950;2023-11-22T03:17:30;7.10;;;4.07;;
21330;SDS011;10824;51.632;4.950;2023-11-22T03:19:57;5.13;;;2.65;;
21330;SDS011;10824;51.632;4.950;2023-11-22T03:22:25;5.35;;;3.00;;
21330;SDS011;10824;51.632;4.950;2023-11-22T03:25:00;8.23;;;3.92;;
21330;SDS011;10824;51.632;4.950;2023-11-22T03:27:30;6.90;;;3.45;;
21330;SDS011;10824;51.632;4.950;2023-11-22T03:29:57;7.03;;;3.47;;
21330;SDS011;10824;51.632;4.950;2023-11-22T03:32:25;7.47;;;3.92;;
21330;SDS011;10824;51.632;4.950;2023-11-22T03:34:53;5.03;;;2.95;;
21330;SDS011;10824;51.632;4.950;2023-11-22T03:37:20;6.63;;;4.07;;
21330;SDS011;10824;51.632;4.950;2023-11-22T03:39:47;10.45;;;4.72;;
21330;SDS011;10824;51.632;4.950;2023-11-22T03:42:16;7.40;;;4.85;;
21330;SDS011;10824;51.632;4.950;2023-11-22T03:44:44;8.70;;;4.50;;
21330;SDS011;10824;51.632;4.950;2023-11-22T03:47:11;12.48;;;4.72;;
21330;SDS011;10824;51.632;4.950;2023-11-22T03:49:40;8.20;;;4.38;;
21330;SDS011;10824;51.632;4.950;2023-11-22T03:52:12;8.48;;;5.13;;
21330;SDS011;10824;51.632;4.950;2023-11-22T03:54:40;8.88;;;5.10;;
21330;SDS011;10824;51.632;4.950;2023-11-22T03:57:07;11.20;;;4.25;;
21330;SDS011;10824;51.632;4.950;2023-11-22T03:59:34;6.68;;;4.22;;
21330;SDS011;10824;51.632;4.950;2023-11-22T04:02:02;7.18;;;3.42;;
21330;SDS011;10824;51.632;4.950;2023-11-22T04:04:29;10.50;;;5.55;;
21330;SDS011;10824;51.632;4.950;2023-11-22T04:06:57;7.60;;;4.53;;
21330;SDS011;10824;51.632;4.950;2023-11-22T04:09:24;8.30;;;5.28;;
21330;SDS011;10824;51.632;4.950;2023-11-22T04:11:51;7.93;;;4.35;;
21330;SDS011;10824;51.632;4.950;2023-11-22T04:14:18;6.22;;;3.92;;
21330;SDS011;10824;51.632;4.950;2023-11-22T04:16:48;11.48;;;4.47;;
21330;SDS011;10824;51.632;4.950;2023-11-22T04:19:16;6.00;;;2.90;;
21330;SDS011;10824;51.632;4.950;2023-11-22T04:21:43;5.15;;;3.70;;
21330;SDS011;10824;51.632;4.950;2023-11-22T04:24:10;10.88;;;3.97;;
21330;SDS011;10824;51.632;4.950;2023-11-22T04:26:38;6.57;;;3.95;;
21330;SDS011;10824;51.632;4.950;2023-11-22T04:29:05;7.55;;;3.78;;
21330;SDS011;10824;51.632;4.950;2023-11-22T04:31:32;6.07;;;3.70;;
21330;SDS011;10824;51.632;4.950;2023-11-22T04:33:59;7.13;;;4.03;;
21330;SDS011;10824;51.632;4.950;2023-11-22T04:36:27;8.93;;;4.07;;
21330;SDS011;10824;51.632;4.950;2023-11-22T04:38:54;7.40;;;4.00;;
21330;SDS011;10824;51.632;4.950;2023-11-22T04:41:21;7.18;;;4.20;;
21330;SDS011;10824;51.632;4.950;2023-11-22T04:43:49;8.48;;;3.42;;
21330;SDS011;10824;51.632;4.950;2023-11-22T04:46:16;6.10;;;3.00;;
21330;SDS011;10824;51.632;4.950;2023-11-22T04:48:43;7.97;;;4.93;;
21330;SDS011;10824;51.632;4.950;2023-11-22T04:51:11;6.18;;;3.53;;
21330;SDS011;10824;51.632;4.950;2023-11-22T04:53:38;9.85;;;3.53;;
21330;SDS011;10824;51.632;4.950;2023-11-22T04:56:05;8.00;;;4.28;;
21330;SDS011;10824;51.632;4.950;2023-11-22T04:58:33;4.78;;;3.67;;
21330;SDS011;10824;51.632;4.950;2023-11-22T05:01:00;4.75;;;3.55;;
21330;SDS011;10824;51.632;4.950;2023-11-22T05:03:31;10.45;;;3.80;;
21330;SDS011;10824;51.632;4.950;2023-11-22T05:05:58;8.20;;;4.28;;
21330;SDS011;10824;51.632;4.950;2023-11-22T05:08:25;6.15;;;3.42;;
21330;SDS011;10824;51.632;4.950;2023-11-22T05:10:53;9.63;;;3.63;;
21330;SDS011;10824;51.632;4.950;2023-11-22T05:13:22;7.82;;;4.13;;
21330;SDS011;10824;51.632;4.950;2023-11-22T05:15:49;9.30;;;5.07;;
21330;SDS011;10824;51.632;4.950;2023-11-22T05:18:17;11.00;;;3.80;;
21330;SDS011;10824;51.632;4.950;2023-11-22T05:20:44;9.73;;;4.53;;
21330;SDS011;10824;51.632;4.950;2023-11-22T05:23:11;7.15;;;4.57;;
21330;SDS011;10824;51.632;4.950;2023-11-22T05:25:40;6.72;;;3.20;;
21330;SDS011;10824;51.632;4.950;2023-11-22T05:28:07;6.25;;;3.22;;
21330;SDS011;10824;51.632;4.950;2023-11-22T05:30:34;8.93;;;4.47;;
21330;SDS011;10824;51.632;4.950;2023-11-22T05:33:01;5.95;;;3.47;;
21330;SDS011;10824;51.632;4.950;2023-11-22T05:35:28;5.38;;;3.22;;
21330;SDS011;10824;51.632;4.950;2023-11-22T05:37:55;5.93;;;3.65;;
21330;SDS011;10824;51.632;4.950;2023-11-22T05:40:23;6.53;;;3.10;;
21330;SDS011;10824;51.632;4.950;2023-11-22T05:42:51;7.32;;;3.55;;
21330;SDS011;10824;51.632;4.950;2023-11-22T05:45:18;8.95;;;4.88;;
21330;SDS011;10824;51.632;4.950;2023-11-22T05:47:45;6.78;;;3.75;;
21330;SDS011;10824;51.632;4.950;2023-11-22T05:50:13;5.32;;;2.95;;
21330;SDS011;10824;51.632;4.950;2023-11-22T05:52:40;8.38;;;4.38;;
21330;SDS011;10824;51.632;4.950;2023-11-22T05:55:08;8.15;;;4.28;;
21330;SDS011;10824;51.632;4.950;2023-11-22T05:57:35;7.28;;;3.08;;
21330;SDS011;10824;51.632;4.950;2023-11-22T06:00:02;7.78;;;3.70;;
21330;SDS011;10824;51.632;4.950;2023-11-22T06:02:30;11.57;;;6.03;;
21330;SDS011;10824;51.632;4.950;2023-11-22T06:04:57;6.70;;;3.20;;
21330;SDS011;10824;51.632;4.950;2023-11-22T06:07:24;9.13;;;4.80;;
21330;SDS011;10824;51.632;4.950;2023-11-22T06:09:54;4.72;;;2.72;;
21330;SDS011;10824;51.632;4.950;2023-11-22T06:12:21;7.78;;;4.55;;
21330;SDS011;10824;51.632;4.950;2023-11-22T06:14:51;8.27;;;4.32;;
21330;SDS011;10824;51.632;4.950;2023-11-22T06:17:19;6.75;;;3.05;;
21330;SDS011;10824;51.632;4.950;2023-11-22T06:19:46;6.90;;;4.13;;
21330;SDS011;10824;51.632;4.950;2023-11-22T06:22:13;5.93;;;3.28;;
21330;SDS011;10824;51.632;4.950;2023-11-22T06:24:41;6.72;;;3.53;;
21330;SDS011;10824;51.632;4.950;2023-11-22T06:27:10;3.53;;;2.40;;
21330;SDS011;10824;51.632;4.950;2023-11-22T06:29:38;3.67;;;2.60;;
21330;SDS011;10824;51.632;4.950;2023-11-22T06:32:05;7.63;;;3.67;;
21330;SDS011;10824;51.632;4.950;2023-11-22T06:34:33;5.88;;;3.20;;
21330;SDS011;10824;51.632;4.950;2023-11-22T06:37:02;6.03;;;3.78;;
21330;SDS011;10824;51.632;4.950;2023-11-22T06:39:30;6.47;;;4.15;;
21330;SDS011;10824;51.632;4.950;2023-11-22T06:41:58;8.10;;;3.70;;
21330;SDS011;10824;51.632;4.950;2023-11-22T06:44:25;14.18;;;3.70;;
21330;SDS011;10824;51.632;4.950;2023-11-22T06:46:53;6.80;;;3.50;;
21330;SDS011;10824;51.632;4.950;2023-11-22T06:49:20;7.38;;;4.45;;
21330;SDS011;10824;51.632;4.950;2023-11-22T06:51:47;8.80;;;4.78;;
21330;SDS011;10824;51.632;4.950;2023-11-22T06:54:14;5.80;;;3.67;;
21330;SDS011;10824;51.632;4.950;2023-11-22T06:56:41;7.45;;;4.32;;
21330;SDS011;10824;51.632;4.950;2023-11-22T06:59:08;9.32;;;4.68;;
21330;SDS011;10824;51.632;4.950;2023-11-22T07:01:35;9.32;;;4.50;;
21330;SDS011;10824;51.632;4.950;2023-11-22T07:04:03;9.60;;;4.53;;
21330;SDS011;10824;51.632;4.950;2023-11-22T07:06:31;6.45;;;3.65;;
21330;SDS011;10824;51.632;4.950;2023-11-22T07:08:59;5.95;;;3.28;;
21330;SDS011;10824;51.632;4.950;2023-11-22T07:11:27;7.18;;;3.47;;
21330;SDS011;10824;51.632;4.950;2023-11-22T07:13:56;8.10;;;4.72;;
21330;SDS011;10824;51.632;4.950;2023-11-22T07:16:24;5.28;;;3.25;;
21330;SDS011;10824;51.632;4.950;2023-11-22T07:18:51;7.82;;;4.47;;
21330;SDS011;10824;51.632;4.950;2023-11-22T07:21:18;6.65;;;2.90;;
21330;SDS011;10824;51.632;4.950;2023-11-22T07:23:47;4.00;;;2.67;;
21330;SDS011;10824;51.632;4.950;2023-11-22T07:26:17;7.75;;;3.75;;
21330;SDS011;10824;51.632;4.950;2023-11-22T07:28:47;8.23;;;3.47;;
21330;SDS011;10824;51.632;4.950;2023-11-22T07:31:14;4.57;;;2.58;;
21330;SDS011;10824;51.632;4.950;2023-11-22T07:33:41;8.20;;;4.63;;
21330;SDS011;10824;51.632;4.950;2023-11-22T07:36:08;9.23;;;4.05;;
21330;SDS011;10824;51.632;4.950;2023-11-22T07:38:36;6.65;;;4.00;;
21330;SDS011;10824;51.632;4.950;2023-11-22T07:41:04;10.05;;;4.80;;
21330;SDS011;10824;51.632;4.950;2023-11-22T07:43:34;20.73;;;10.55;;
21330;SDS011;10824;51.632;4.950;2023-11-22T07:46:06;13.82;;;5.60;;
21330;SDS011;10824;51.632;4.950;2023-11-22T07:48:40;13.98;;;6.88;;
21330;SDS011;10824;51.632;4.950;2023-11-22T07:51:08;9.93;;;4.15;;
21330;SDS011;10824;51.632;4.950;2023-11-22T07:53:36;4.60;;;3.17;;
21330;SDS011;10824;51.632;4.950;2023-11-22T07:56:03;6.13;;;3.65;;
21330;SDS011;10824;51.632;4.950;2023-11-22T07:58:31;6.50;;;4.10;;
21330;SDS011;10824;51.632;4.950;2023-11-22T08:00:58;7.65;;;4.18;;
21330;SDS011;10824;51.632;4.950;2023-11-22T08:03:26;9.07;;;4.47;;
21330;SDS011;10824;51.632;4.950;2023-11-22T08:05:53;5.60;;;3.65;;
21330;SDS011;10824;51.632;4.950;2023-11-22T08:08:22;6.68;;;4.10;;
21330;SDS011;10824;51.632;4.950;2023-11-22T08:10:50;9.52;;;4.65;;
21330;SDS011;10824;51.632;4.950;2023-11-22T08:13:20;8.27;;;3.72;;
21330;SDS011;10824;51.632;4.950;2023-11-22T08:15:50;8.15;;;4.70;;
21330;SDS011;10824;51.632;4.950;2023-11-22T08:18:18;7.38;;;3.55;;
21330;SDS011;10824;51.632;4.950;2023-11-22T08:20:45;8.88;;;4.55;;
21330;SDS011;10824;51.632;4.950;2023-11-22T08:23:12;12.90;;;6.15;;
21330;SDS011;10824;51.632;4.950;2023-11-22T08:25:41;8.25;;;4.93;;
21330;SDS011;10824;51.632;4.950;2023-11-22T08:28:11;9.45;;;4.80;;
21330;SDS011;10824;51.632;4.950;2023-11-22T08:30:38;10.32;;;4.90;;
21330;SDS011;10824;51.632;4.950;2023-11-22T08:33:07;10.57;;;4.65;;
21330;SDS011;10824;51.632;4.950;2023-11-22T08:35:35;10.32;;;6.68;;
21330;SDS011;10824;51.632;4.950;2023-11-22T08:38:02;10.63;;;5.88;;
21330;SDS011;10824;51.632;4.950;2023-11-22T08:40:30;11.23;;;5.55;;
21330;SDS011;10824;51.632;4.950;2023-11-22T08:42:57;10.13;;;6.40;;
21330;SDS011;10824;51.632;4.950;2023-11-22T08:45:24;7.93;;;4.45;;
21330;SDS011;10824;51.632;4.950;2023-11-22T08:47:51;11.80;;;6.78;;
21330;SDS011;10824;51.632;4.950;2023-11-22T08:50:18;9.63;;;5.97;;
21330;SDS011;10824;51.632;4.950;2023-11-22T08:52:46;10.25;;;5.63;;
21330;SDS011;10824;51.632;4.950;2023-11-22T08:55:13;9.13;;;5.00;;
21330;SDS011;10824;51.632;4.950;2023-11-22T08:57:41;9.30;;;4.65;;
21330;SDS011;10824;51.632;4.950;2023-11-22T09:00:08;7.75;;;4.60;;
21330;SDS011;10824;51.632;4.950;2023-11-22T09:02:37;14.15;;;5.60;;
21330;SDS011;10824;51.632;4.950;2023-11-22T09:05:06;11.52;;;5.82;;
21330;SDS011;10824;51.632;4.950;2023-11-22T09:07:39;15.93;;;7.50;;
21330;SDS011;10824;51.632;4.950;2023-11-22T09:10:06;11.35;;;6.60;;
21330;SDS011;10824;51.632;4.950;2023-11-22T09:12:37;9.70;;;6.20;;
21330;SDS011;10824;51.632;4.950;2023-11-22T09:15:08;12.50;;;6.43;;
21330;SDS011;10824;51.632;4.950;2023-11-22T09:17:44;11.95;;;5.78;;
21330;SDS011;10824;51.632;4.950;2023-11-22T09:20:14;12.25;;;7.45;;
21330;SDS011;10824;51.632;4.950;2023-11-22T09:22:46;12.98;;;7.47;;
21330;SDS011;10824;51.632;4.950;2023-11-22T09:25:15;16.35;;;8.13;;
21330;SDS011;10824;51.632;4.950;2023-11-22T09:27:53;10.73;;;5.20;;
21330;SDS011;10824;51.632;4.950;2023-11-22T09:30:26;26.50;;;8.82;;
21330;SDS011;10824;51.632;4.950;2023-11-22T09:33:09;24.65;;;7.90;;
21330;SDS011;10824;51.632;4.950;2023-11-22T09:35:44;19.20;;;7.80;;
21330;SDS011;10824;51.632;4.950;2023-11-22T09:38:14;16.08;;;7.07;;
21330;SDS011;10824;51.632;4.950;2023-11-22T09:40:43;19.15;;;6.57;;
21330;SDS011;10824;51.632;4.950;2023-11-22T09:43:12;14.68;;;5.80;;
21330;SDS011;10824;51.632;4.950;2023-11-22T09:45:49;8.60;;;5.38;;
21330;SDS011;10824;51.632;4.950;2023-11-22T09:48:22;6.85;;;3.67;;
21330;SDS011;10824;51.632;4.950;2023-11-22T09:56:17;10.85;;;4.38;;
21330;SDS011;10824;51.632;4.950;2023-11-22T09:58:46;10.52;;;5.43;;
21330;SDS011;10824;51.632;4.950;2023-11-22T10:01:15;10.10;;;4.53;;
21330;SDS011;10824;51.632;4.950;2023-11-22T10:03:43;10.35;;;5.28;;
21330;SDS011;10824;51.632;4.950;2023-11-22T10:06:17;10.27;;;4.47;;
21330;SDS011;10824;51.632;4.950;2023-11-22T10:08:52;8.32;;;5.45;;
21330;SDS011;10824;51.632;4.950;2023-11-22T10:11:23;6.63;;;4.88;;
21330;SDS011;10824;51.632;4.950;2023-11-22T10:13:55;9.02;;;4.97;;
21330;SDS011;10824;51.632;4.950;2023-11-22T10:16:30;7.82;;;4.53;;
21330;SDS011;10824;51.632;4.950;2023-11-22T10:18:57;10.52;;;4.22;;
21330;SDS011;10824;51.632;4.950;2023-11-22T10:21:28;6.22;;;3.97;;
21330;SDS011;10824;51.632;4.950;2023-11-22T10:24:02;5.72;;;3.53;;
21330;SDS011;10824;51.632;4.950;2023-11-22T10:26:30;7.53;;;4.70;;
21330;SDS011;10824;51.632;4.950;2023-11-22T10:28:58;11.88;;;4.13;;
21330;SDS011;10824;51.632;4.950;2023-11-22T10:31:26;9.10;;;4.45;;
21330;SDS011;10824;51.632;4.950;2023-11-22T10:33:54;10.20;;;5.18;;
21330;SDS011;10824;51.632;4.950;2023-11-22T10:36:25;7.72;;;4.40;;
21330;SDS011;10824;51.632;4.950;2023-11-22T10:38:53;10.82;;;4.15;;
21330;SDS011;10824;51.632;4.950;2023-11-22T10:41:21;10.63;;;4.40;;
21330;SDS011;10824;51.632;4.950;2023-11-22T10:43:51;11.90;;;3.90;;
21330;SDS011;10824;51.632;4.950;2023-11-22T10:46:27;11.52;;;4.82;;
21330;SDS011;10824;51.632;4.950;2023-11-22T10:48:56;10.63;;;4.15;;
21330;SDS011;10824;51.632;4.950;2023-11-22T10:51:26;6.68;;;3.97;;
21330;SDS011;10824;51.632;4.950;2023-11-22T10:53:57;6.60;;;5.35;;
21330;SDS011;10824;51.632;4.950;2023-11-22T10:56:27;6.07;;;3.63;;
21330;SDS011;10824;51.632;4.950;2023-11-22T10:58:55;8.45;;;4.50;;
21330;SDS011;10824;51.632;4.950;2023-11-22T11:01:24;9.30;;;4.63;;
21330;SDS011;10824;51.632;4.950;2023-11-22T11:03:56;8.82;;;5.57;;
21330;SDS011;10824;51.632;4.950;2023-11-22T11:06:32;9.13;;;4.97;;
21330;SDS011;10824;51.632;4.950;2023-11-22T11:09:05;17.35;;;5.45;;
21330;SDS011;10824;51.632;4.950;2023-11-22T11:11:35;12.65;;;5.88;;
21330;SDS011;10824;51.632;4.950;2023-11-22T11:14:03;7.90;;;4.32;;
21330;SDS011;10824;51.632;4.950;2023-11-22T11:16:35;7.38;;;4.32;;
21330;SDS011;10824;51.632;4.950;2023-11-22T11:19:05;11.50;;;5.30;;
21330;SDS011;10824;51.632;4.950;2023-11-22T11:21:34;11.27;;;6.57;;
21330;SDS011;10824;51.632;4.950;2023-11-22T11:24:01;7.22;;;4.43;;
21330;SDS011;10824;51.632;4.950;2023-11-22T11:26:31;10.13;;;5.22;;
21330;SDS011;10824;51.632;4.950;2023-11-22T11:29:01;11.13;;;7.07;;
21330;SDS011;10824;51.632;4.950;2023-11-22T11:31:34;10.52;;;4.63;;
21330;SDS011;10824;51.632;4.950;2023-11-22T11:34:06;7.55;;;5.05;;
21330;SDS011;10824;51.632;4.950;2023-11-22T11:36:37;9.68;;;6.15;;
21330;SDS011;10824;51.632;4.950;2023-11-22T11:39:05;7.75;;;4.07;;
21330;SDS011;10824;51.632;4.950;2023-11-22T11:41:42;8.65;;;5.07;;
21330;SDS011;10824;51.632;4.950;2023-11-22T11:44:09;7.20;;;4.35;;
21330;SDS011;10824;51.632;4.950;2023-11-22T11:46:38;10.65;;;5.57;;
21330;SDS011;10824;51.632;4.950;2023-11-22T11:49:07;9.38;;;5.05;;
21330;SDS011;10824;51.632;4.950;2023-11-22T11:51:36;12.23;;;5.15;;
21330;SDS011;10824;51.632;4.950;2023-11-22T11:54:04;9.07;;;6.03;;
21330;SDS011;10824;51.632;4.950;2023-11-22T11:56:33;8.00;;;4.50;;
21330;SDS011;10824;51.632;4.950;2023-11-22T11:59:01;12.18;;;7.82;;
21330;SDS011;10824;51.632;4.950;2023-11-22T12:01:29;11.90;;;5.78;;
21330;SDS011;10824;51.632;4.950;2023-11-22T12:03:57;9.98;;;5.38;;
21330;SDS011;10824;51.632;4.950;2023-11-22T12:06:24;10.88;;;5.68;;
21330;SDS011;10824;51.632;4.950;2023-11-22T12:08:52;11.68;;;6.28;;
21330;SDS011;10824;51.632;4.950;2023-11-22T12:11:19;10.68;;;3.92;;
21330;SDS011;10824;51.632;4.950;2023-11-22T12:13:47;9.18;;;4.18;;
21330;SDS011;10824;51.632;4.950;2023-11-22T12:16:16;8.93;;;5.43;;
21330;SDS011;10824;51.632;4.950;2023-11-22T12:18:54;11.32;;;4.47;;
21330;SDS011;10824;51.632;4.950;2023-11-22T12:21:21;10.05;;;4.07;;
21330;SDS011;10824;51.632;4.950;2023-11-22T12:23:50;6.95;;;4.10;;
21330;SDS011;10824;51.632;4.950;2023-11-22T12:26:19;11.75;;;6.35;;
21330;SDS011;10824;51.632;4.950;2023-11-22T12:28:50;10.02;;;4.65;;
21330;SDS011;10824;51.632;4.950;2023-11-22T12:31:31;11.38;;;5.93;;
21330;SDS011;10824;51.632;4.950;2023-11-22T12:34:03;11.43;;;6.57;;
21330;SDS011;10824;51.632;4.950;2023-11-22T12:36:33;10.63;;;5.85;;
21330;SDS011;10824;51.632;4.950;2023-11-22T12:39:01;8.30;;;4.68;;
21330;SDS011;10824;51.632;4.950;2023-11-22T12:41:30;10.63;;;5.18;;
21330;SDS011;10824;51.632;4.950;2023-11-22T12:44:05;10.98;;;6.18;;
21330;SDS011;10824;51.632;4.950;2023-11-22T12:49:47;14.82;;;7.05;;
21330;SDS011;10824;51.632;4.950;2023-11-22T12:52:14;15.40;;;7.50;;
21330;SDS011;10824;51.632;4.950;2023-11-22T12:54:41;12.43;;;6.35;;
21330;SDS011;10824;51.632;4.950;2023-11-22T12:57:11;16.60;;;7.40;;
21330;SDS011;10824;51.632;4.950;2023-11-22T12:59:39;18.85;;;8.48;;
21330;SDS011;10824;51.632;4.950;2023-11-22T13:02:07;17.70;;;9.18;;
21330;SDS011;10824;51.632;4.950;2023-11-22T13:04:36;13.35;;;8.30;;
21330;SDS011;10824;51.632;4.950;2023-11-22T13:07:03;14.75;;;7.70;;
21330;SDS011;10824;51.632;4.950;2023-11-22T13:09:31;21.58;;;9.27;;
21330;SDS011;10824;51.632;4.950;2023-11-22T13:12:00;17.48;;;7.45;;
21330;SDS011;10824;51.632;4.950;2023-11-22T13:14:27;19.52;;;8.85;;
21330;SDS011;10824;51.632;4.950;2023-11-22T13:17:02;20.23;;;10.40;;
21330;SDS011;10824;51.632;4.950;2023-11-22T13:19:30;15.18;;;7.43;;
21330;SDS011;10824;51.632;4.950;2023-11-22T13:21:57;17.20;;;8.77;;
21330;SDS011;10824;51.632;4.950;2023-11-22T13:24:27;14.73;;;7.63;;
21330;SDS011;10824;51.632;4.950;2023-11-22T13:26:54;17.30;;;6.82;;
21330;SDS011;10824;51.632;4.950;2023-11-22T13:29:21;14.48;;;7.53;;
21330;SDS011;10824;51.632;4.950;2023-11-22T13:31:50;17.38;;;8.15;;
21330;SDS011;10824;51.632;4.950;2023-11-22T13:34:18;14.02;;;7.82;;
21330;SDS011;10824;51.632;4.950;2023-11-22T13:36:45;16.88;;;8.27;;
21330;SDS011;10824;51.632;4.950;2023-11-22T13:39:12;16.35;;;8.15;;
21330;SDS011;10824;51.632;4.950;2023-11-22T13:41:41;18.27;;;9.75;;
21330;SDS011;10824;51.632;4.950;2023-11-22T13:44:09;30.00;;;11.00;;
21330;SDS011;10824;51.632;4.950;2023-11-22T13:46:37;31.17;;;15.50;;
21330;SDS011;10824;51.632;4.950;2023-11-22T13:49:04;27.88;;;13.90;;
21330;SDS011;10824;51.632;4.950;2023-11-22T13:51:32;34.35;;;16.45;;
21330;SDS011;10824;51.632;4.950;2023-11-22T13:54:04;32.70;;;14.30;;
21330;SDS011;10824;51.632;4.950;2023-11-22T13:56:32;30.88;;;14.85;;
21330;SDS011;10824;51.632;4.950;2023-11-22T13:58:59;21.85;;;11.82;;
21330;SDS011;10824;51.632;4.950;2023-11-22T14:01:26;24.73;;;12.02;;
21330;SDS011;10824;51.632;4.950;2023-11-22T14:03:54;19.73;;;9.05;;
21330;SDS011;10824;51.632;4.950;2023-11-22T14:06:23;17.90;;;8.32;;
21330;SDS011;10824;51.632;4.950;2023-11-22T14:08:50;18.77;;;7.88;;
21330;SDS011;10824;51.632;4.950;2023-11-22T14:11:19;21.10;;;7.57;;
21330;SDS011;10824;51.632;4.950;2023-11-22T14:13:47;15.60;;;6.85;;
21330;SDS011;10824;51.632;4.950;2023-11-22T14:16:14;16.13;;;8.55;;
21330;SDS011;10824;51.632;4.950;2023-11-22T14:18:42;19.85;;;9.90;;
21330;SDS011;10824;51.632;4.950;2023-11-22T14:21:12;18.73;;;8.77;;
21330;SDS011;10824;51.632;4.950;2023-11-22T14:23:39;23.30;;;10.25;;
21330;SDS011;10824;51.632;4.950;2023-11-22T14:26:07;14.20;;;8.63;;
21330;SDS011;10824;51.632;4.950;2023-11-22T14:28:34;14.23;;;7.82;;
21330;SDS011;10824;51.632;4.950;2023-11-22T14:31:01;15.55;;;7.63;;
21330;SDS011;10824;51.632;4.950;2023-11-22T14:33:29;18.13;;;7.95;;
21330;SDS011;10824;51.632;4.950;2023-11-22T14:35:58;17.35;;;9.75;;
21330;SDS011;10824;51.632;4.950;2023-11-22T14:38:26;15.15;;;8.63;;
21330;SDS011;10824;51.632;4.950;2023-11-22T14:40:54;20.20;;;10.95;;
21330;SDS011;10824;51.632;4.950;2023-11-22T14:43:23;19.70;;;9.18;;
21330;SDS011;10824;51.632;4.950;2023-11-22T14:45:53;18.55;;;8.95;;
21330;SDS011;10824;51.632;4.950;2023-11-22T14:48:20;17.85;;;8.27;;
21330;SDS011;10824;51.632;4.950;2023-11-22T14:50:48;16.17;;;6.78;;
21330;SDS011;10824;51.632;4.950;2023-11-22T14:53:15;18.42;;;8.32;;
21330;SDS011;10824;51.632;4.950;2023-11-22T14:55:43;23.60;;;9.52;;
21330;SDS011;10824;51.632;4.950;2023-11-22T14:58:11;19.50;;;9.73;;
21330;SDS011;10824;51.632;4.950;2023-11-22T15:00:38;19.80;;;8.93;;